world map with BRN marked

BRN - Airport

This information may not be accurate or current and is not valid for navigation or flight planning. No warranty of fitness for any purpose is made or implied.

flag of Bernflag of Switzerland

Donate via PayPal

Additional information is available on the NEW Great Circle Mapper

Location
City:  Bern, Bern, Switzerland
Near (Alt.):Berne
Name:Bern-Belp
ICAO / IATA:LSZB / BRN

Details
Type:Airport (Aerodrome, Airfield)
Use:Public/Civil
Latitude:46°54'51"N (46.914100)
Longitude:7°29'50"E (7.497153)
Datum:WGS 1984
Elevation:1674 ft (510 m)
Runways:3
Longest:4954 × 98 ft (1510 × 30 m)

Time
Timezone:UTC+1 (DST+4)
Local Time:

Weather
METAR:LSZB  041350Z 33006KT 300V360 9999 SCT019 02/M03 Q1025 NOSIG
TAF:LSZB  (expired)

Related Locations
Nearby:
Farthest:CHT: 12146 mi / 19547 km
Waitangi [Tuuta], CIT, NZ

Find:

   beyond  
but within

Other Information
Maps:
Sources:

  


 


Great Circle Mapper   Great Circle Mapper
Great Circle Mapper FAQ   Great Circle Mapper FAQ
  Karl's Home Page
KLSē   KLSē Home
   GC on Facebook
Airlines of the World   Airlines of the World
Donate via PayPal


Copyright © 2004-2019, Karl L. Swartz. All rights reserved.
All trademarks mentioned herein belong to their respective owners.

Please see credits for attribution and copyright information.

Karl Swartz <karl@kls2.com>
  Powered by FreeBSD
Valid HTML 4.01!
Labeled with ICRA
hCard Microformat
Geo Microformat